Rubio, Iowa
Current Conditions -  °F | °C
As of 7:15 AM on Sunday 23 Nov 2014 (Local Time) from KFFL Reporting Station
Light Rain Light Rain  
Wind Chill: 50°   Ceiling: NA
Heat Index: 50°   Visibility: NA
Dew Point: 48°   Wind: 12mph
Humidity: 94%   Direction: 150°SSE
Pressure: 29.61"   Gusts: NA
Location:  41.202°N, 91.9548°W
Report Text: KFFL 231315Z AUTO 15010KT -RA 10/09 A2961 RMK AO2
Loading
Personal Weather Stations






























Interactive Weather Map New forecast layout! Learn more

10-Day Weather Forecast

Advertisements
Track Severe Weather on mobile